Nanticoke — VCQL — position and weather

sailwx.info

Track history (hours):
 
Tides and Currents Weather Stations Pressure Air Temp Water Temp Dewpoint Dewpoint Depression Visibility Wind Speed Wind Dir Waves Ship Positions

Nanticoke

Last reported at 2015-Apr-26 04:12 UTC. Time now 2015-Apr-27 22:13 UTC.
Position N 42°28' W 080°12'.

Length 222 m; draft 8.2 m.

Type: Cargo ship. MMSI: 316043000.

Date/timePositionNaut miles runAvg speedWind from/ knotsBaromVisibWave heightAir tempDewpointWater temp
2015-Apr-26 04:12N 42°28' W 080°12'913.3
2015-Apr-26 03:33N 42°31' W 080°01'1413.3
2015-Apr-26 02:32N 42°38' W 079°45'185 9.7
2015-Apr-25 07:33N 44°14' W 076°08'0 0.0
2015-Apr-25 06:33N 44°14' W 076°08'0 0.0
2015-Apr-25 05:34N 44°14' W 076°08'0 0.0
2015-Apr-25 04:33N 44°14' W 076°08'1212.2
2015-Apr-25 03:34N 44°07' W 076°22'1212.2
2015-Apr-25 02:34N 44°14' W 076°08'105 7.5
2015-Apr-24 12:28N 45°13' W 074°05'7 8.2
2015-Apr-24 11:33N 45°17' W 073°56'2 1.7
2015-Apr-24 10:33N 45°19' W 073°55'1 0.8
2015-Apr-24 09:33N 45°20' W 073°55'7 6.8
2015-Apr-24 08:33N 45°24' W 073°47'7 6.7
2015-Apr-24 07:33N 45°24' W 073°38'2 1.5
2015-Apr-24 06:32N 45°24' W 073°35'0 0.0
2015-Apr-24 05:32N 45°24' W 073°35'0 0.0
2015-Apr-24 04:33N 45°24' W 073°35'0 0.0
2015-Apr-24 03:33N 45°24' W 073°35'0 0.0
2015-Apr-24 02:33N 45°24' W 073°35'0 0.0
2015-Apr-24 01:33N 45°24' W 073°35'0 0.0
2015-Apr-24 00:20N 45°24' W 073°35'0 0.0
2015-Apr-23 23:18N 45°24' W 073°35'0 0.0
2015-Apr-23 22:25N 45°24' W 073°35'0 0.0
2015-Apr-23 17:12N 45°24' W 073°35'1 1.5
2015-Apr-23 16:33N 45°24' W 073°34'3 2.3
2015-Apr-23 15:15N 45°26' W 073°30'4 2.6
2015-Apr-23 13:33N 45°30' W 073°31'52 7.2
2015-Apr-23 06:22N 46°13' W 072°49'810.3
2015-Apr-23 05:34N 46°16' W 072°38'8 8.3
2015-Apr-23 04:33N 46°22' W 072°30'9 9.3
2015-Apr-23 03:34N 46°26' W 072°18'9 8.8
2015-Apr-23 02:33N 46°33' W 072°09'  
Track history (hours):
 
Tides and Currents Weather Stations Pressure Air Temp Water Temp Dewpoint Dewpoint Depression Visibility Wind Speed Wind Dir Waves Ship Positions

Nanticoke

Last reported at 2015-Apr-26 04:12 UTC. Time now 2015-Apr-27 22:13 UTC.
Position N 42°28' W 080°12'.

Length 222 m; draft 8.2 m.

Type: Cargo ship. MMSI: 316043000.

Date/timePositionNaut miles runAvg speedWind from/ knotsBaromVisibWave heightAir tempDewpointWater temp
2015-Apr-26 04:12N 42°28' W 080°12'913.3
2015-Apr-26 03:33N 42°31' W 080°01'1413.3
2015-Apr-26 02:32N 42°38' W 079°45'185 9.7
2015-Apr-25 07:33N 44°14' W 076°08'0 0.0
2015-Apr-25 06:33N 44°14' W 076°08'0 0.0
2015-Apr-25 05:34N 44°14' W 076°08'0 0.0
2015-Apr-25 04:33N 44°14' W 076°08'1212.2
2015-Apr-25 03:34N 44°07' W 076°22'1212.2
2015-Apr-25 02:34N 44°14' W 076°08'105 7.5
2015-Apr-24 12:28N 45°13' W 074°05'7 8.2
2015-Apr-24 11:33N 45°17' W 073°56'2 1.7
2015-Apr-24 10:33N 45°19' W 073°55'1 0.8
2015-Apr-24 09:33N 45°20' W 073°55'7 6.8
2015-Apr-24 08:33N 45°24' W 073°47'7 6.7
2015-Apr-24 07:33N 45°24' W 073°38'2 1.5
2015-Apr-24 06:32N 45°24' W 073°35'0 0.0
2015-Apr-24 05:32N 45°24' W 073°35'0 0.0
2015-Apr-24 04:33N 45°24' W 073°35'0 0.0
2015-Apr-24 03:33N 45°24' W 073°35'0 0.0
2015-Apr-24 02:33N 45°24' W 073°35'0 0.0
2015-Apr-24 01:33N 45°24' W 073°35'0 0.0
2015-Apr-24 00:20N 45°24' W 073°35'0 0.0
2015-Apr-23 23:18N 45°24' W 073°35'0 0.0
2015-Apr-23 22:25N 45°24' W 073°35'0 0.0
2015-Apr-23 17:12N 45°24' W 073°35'1 1.5
2015-Apr-23 16:33N 45°24' W 073°34'3 2.3
2015-Apr-23 15:15N 45°26' W 073°30'4 2.6
2015-Apr-23 13:33N 45°30' W 073°31'52 7.2
2015-Apr-23 06:22N 46°13' W 072°49'810.3
2015-Apr-23 05:34N 46°16' W 072°38'8 8.3
2015-Apr-23 04:33N 46°22' W 072°30'9 9.3
2015-Apr-23 03:34N 46°26' W 072°18'9 8.8
2015-Apr-23 02:33N 46°33' W 072°09'  

Dump ship's entire track history